Veuillez saisir l'adresse e-mail associée à votre compte d'utilisateur. Votre identifiant vous sera envoyé à cette adresse.

METAR TAF

[Source: ADDS]
METAR
LFCR 200030Z AUTO 12021KT CAVOK 13/09 Q1016 BECMG 13020G30KT =
LFCR 192300Z 2000/2024 13020G30KT 9999 FEW018 PROB30 TEMPO 2004/2007 BKN013 BECMG 2008/2010 14028G40KT PROB40 TEMPO 2019/2024 14035G50KT LFBA 200030Z AUTO 10014KT CAVOK 14/12 Q1012 =
LFBA 191400Z 1915/1924 12015KT CAVOK TEMPO 1917/1924 12018G28KT LFSL 200030Z AUTO 15010KT CAVOK 14/10 Q1013 =
LFSL 191400Z 1915/1924 14010KT CAVOK LFLW 200000Z AUTO 10012KT CAVOK 12/09 Q1016 =
LFLW 191400Z 1915/1924 13010KT CAVOK BECMG 1918/1920 13016G26KT
TAF
LFCR 192300Z 2000/2024 13020G30KT 9999 FEW018 PROB30 TEMPO 2004/2007 BKN013 BECMG 2008/2010 14028G40KT PROB40 TEMPO 2019/2024 14035G50KT =
LFBA 191400Z 1915/1924 12015KT CAVOK TEMPO 1917/1924 12018G28KT =
LFSL 191400Z 1915/1924 14010KT CAVOK =
LFLW 191400Z 1915/1924 13010KT CAVOK BECMG 1918/1920 13016G26KT =
SR / SS: 06:16 / 17:01 UTC (LFCC 2020-10-20)